Startpagina
METAR-TAF:

METAR-TAF

Vliegvelden :

Weno, Weno Island, Micronesië

breedte: 07-28N, lengte: 151-51E, hoogte: 3 m

Actueel weer

Dit bericht is 47 minuten geleden gemaakt, om 06:51 UTC
Wind 10 kt uit het noordoosten
Temperatuur 29°C
Vochtigheid 89%
Druk 1007 hPa
Zicht: 24.1 km
Weinig wolken op 1400 ft
Verspreide wolken op 12000 ft
Geheel bewolkt op 28000 ft

METAR: PTKK 240651Z 04010KT 15SM FEW014 SCT120 OVC280 29/27 A2975 RMK SLP076 T02940272

Tijdstip: 17:38 (07:38 UTC)

Verwachting

Dit bericht is 2 uur en het 18 minuten geleden gemaakt, om 05:20 UTC
Verwachting geldig van 24 om 06 UTC tot 25 om 06 UTC
Wind 10 kt uit het noordoosten
Zicht: 10 km
Verspreide wolken op 1400 ft
Verspreide wolken op 3000 ft
buien in de omgeving

TAF: PTKK 240520Z 2406/2506 04010KT P6SM VCSH SCT014 SCT030

Waarnemingen en weersverwachtingen van meer dan 4000 vliegvelden (METAR en TAF).

De beschikbare stations zijn de gele en rode punten op de kaart.

Ga met uw muis naar het station om de naam te zien.

Klik dan om waarnemingen en weersverwachtingen te zien.

kaart wijzigen: klik op de groene knoppen met een zwart kruis om in te zoomen, op de groene knop met een streepje om uit te zoomen of op de groene pijlen voor aangrenzende kaarten.


METAR-TAF: